createdAt,value
2018-08-30T00:00:35.767Z,34
2018-08-30T00:01:41.240Z,34
2018-08-30T00:02:46.411Z,34
2018-08-30T00:03:51.422Z,34
2018-08-30T00:04:56.959Z,34
2018-08-30T00:06:01.890Z,34
2018-08-30T00:07:07.465Z,34
2018-08-30T00:08:12.422Z,34
2018-08-30T00:09:17.094Z,34
2018-08-30T00:10:22.616Z,34
2018-08-30T00:11:27.491Z,34
2018-08-30T00:12:33.192Z,34
2018-08-30T00:13:38.127Z,34
2018-08-30T00:14:43.561Z,34
2018-08-30T00:15:48.503Z,34
2018-08-30T00:16:52.806Z,34
2018-08-30T00:17:58.008Z,34
2018-08-30T00:19:02.775Z,34
2018-08-30T00:20:08.011Z,34
2018-08-30T00:21:12.634Z,34
2018-08-30T00:22:17.756Z,34
2018-08-30T00:23:22.662Z,34
2018-08-30T00:24:28.233Z,34
2018-08-30T00:25:33.393Z,34
2018-08-30T00:26:38.566Z,34
2018-08-30T00:27:44.408Z,34
2018-08-30T00:28:49.606Z,34
2018-08-30T00:29:54.810Z,34
2018-08-30T00:31:00.318Z,34
2018-08-30T00:32:05.477Z,34
2018-08-30T00:33:10.460Z,34
2018-08-30T00:34:15.712Z,34
2018-08-30T00:35:20.310Z,34
2018-08-30T00:36:40.467Z,34
2018-08-30T00:37:45.398Z,34
2018-08-30T00:38:50.328Z,34
2018-08-30T00:39:55.743Z,34
2018-08-30T00:41:00.409Z,34
2018-08-30T00:42:05.097Z,34
2018-08-30T00:43:10.863Z,34
2018-08-30T00:44:15.742Z,34
2018-08-30T00:45:20.930Z,34
2018-08-30T00:46:41.326Z,34
2018-08-30T00:47:46.480Z,34
2018-08-30T00:48:52.332Z,34
2018-08-30T00:49:57.774Z,34
2018-08-30T00:51:02.733Z,34
2018-08-30T00:52:08.136Z,34
2018-08-30T00:53:13.629Z,34
2018-08-30T00:54:18.797Z,34
2018-08-30T00:55:23.671Z,34
2018-08-30T00:56:28.874Z,34
2018-08-30T00:57:34.811Z,34
2018-08-30T00:58:40.307Z,34
2018-08-30T00:59:44.952Z,34
2018-08-30T01:00:50.776Z,34
2018-08-30T01:01:55.934Z,34
2018-08-30T01:03:01.197Z,34
2018-08-30T01:04:06.671Z,34
2018-08-30T01:05:11.253Z,34
2018-08-30T01:06:16.705Z,34
2018-08-30T01:07:22.463Z,34
2018-08-30T01:08:27.702Z,34
2018-08-30T01:09:33.320Z,34
2018-08-30T01:10:38.478Z,34
2018-08-30T01:11:43.375Z,34
2018-08-30T01:12:48.857Z,34
2018-08-30T01:13:53.749Z,34
2018-08-30T01:14:58.697Z,34
2018-08-30T01:16:03.563Z,34
2018-08-30T01:17:09.028Z,34
2018-08-30T01:18:14.558Z,34
2018-08-30T01:19:20.450Z,34
2018-08-30T01:20:25.603Z,34
2018-08-30T01:21:31.187Z,34
2018-08-30T01:22:36.440Z,34
2018-08-30T01:23:41.871Z,34
2018-08-30T01:24:47.721Z,34
2018-08-30T01:25:52.317Z,34
2018-08-30T01:26:57.755Z,34
2018-08-30T01:28:03.204Z,34
2018-08-30T01:29:08.717Z,34
2018-08-30T01:30:14.249Z,34
2018-08-30T01:31:20.130Z,34
2018-08-30T01:32:25.378Z,34
2018-08-30T01:33:31.075Z,34
2018-08-30T01:34:36.329Z,34
2018-08-30T01:35:41.300Z,34
2018-08-30T01:36:46.306Z,34
2018-08-30T01:37:51.768Z,34
2018-08-30T01:38:56.935Z,34
2018-08-30T01:40:02.094Z,34
2018-08-30T01:41:07.074Z,34
2018-08-30T01:42:12.242Z,34
2018-08-30T01:43:17.981Z,34
2018-08-30T01:44:23.181Z,34
2018-08-30T01:45:28.462Z,34
2018-08-30T01:46:33.622Z,34
2018-08-30T01:47:39.106Z,34
2018-08-30T01:48:44.563Z,34
2018-08-30T01:49:49.749Z,34
2018-08-30T01:50:54.691Z,34
2018-08-30T01:52:00.091Z,34
2018-08-30T01:53:04.990Z,34
2018-08-30T01:54:10.148Z,34
2018-08-30T01:55:15.561Z,34
2018-08-30T01:56:20.707Z,34
2018-08-30T01:57:26.659Z,34
2018-08-30T01:58:32.104Z,34
2018-08-30T01:59:36.993Z,34
2018-08-30T02:00:42.685Z,34
2018-08-30T02:01:48.129Z,34
2018-08-30T02:02:53.360Z,34
2018-08-30T02:03:59.093Z,34
2018-08-30T02:05:04.549Z,34
2018-08-30T02:06:10.025Z,34
2018-08-30T02:07:15.446Z,34
2018-08-30T02:08:20.039Z,34
2018-08-30T02:09:40.297Z,34
2018-08-30T02:10:45.741Z,34
2018-08-30T02:11:50.999Z,34
2018-08-30T02:12:55.981Z,34
2018-08-30T02:14:00.904Z,34
2018-08-30T02:15:06.051Z,34
2018-08-30T02:16:11.770Z,34
2018-08-30T02:17:16.935Z,34
2018-08-30T02:18:22.380Z,34
2018-08-30T02:19:28.360Z,34
2018-08-30T02:20:33.574Z,34
2018-08-30T02:21:39.148Z,34
2018-08-30T02:22:44.388Z,34
2018-08-30T02:23:49.541Z,34
2018-08-30T02:24:54.696Z,34
2018-08-30T02:25:59.996Z,34
2018-08-30T02:27:05.156Z,34
2018-08-30T02:28:10.414Z,34
2018-08-30T02:29:15.663Z,34
2018-08-30T02:30:20.532Z,34
2018-08-30T02:31:25.663Z,34
2018-08-30T02:32:30.863Z,34
2018-08-30T02:33:36.135Z,34
2018-08-30T02:34:41.582Z,34
2018-08-30T02:35:46.741Z,34
2018-08-30T02:36:51.860Z,34
2018-08-30T02:37:57.112Z,34
2018-08-30T02:39:01.780Z,34
2018-08-30T02:40:06.374Z,34
2018-08-30T02:41:11.588Z,34
2018-08-30T02:42:16.521Z,34
2018-08-30T02:43:21.986Z,34
2018-08-30T02:44:27.428Z,34
2018-08-30T02:45:32.876Z,34
2018-08-30T02:46:38.338Z,34
2018-08-30T02:47:43.206Z,34
2018-08-30T02:48:48.755Z,34
2018-08-30T02:49:54.293Z,34
2018-08-30T02:50:59.571Z,34
2018-08-30T02:52:04.808Z,34
2018-08-30T02:53:10.291Z,34
2018-08-30T02:54:15.505Z,34
2018-08-30T02:55:20.640Z,34
2018-08-30T02:56:26.087Z,34
2018-08-30T02:57:31.736Z,34
2018-08-30T02:58:37.170Z,34
2018-08-30T02:59:42.417Z,34
2018-08-30T03:00:48.127Z,34
2018-08-30T03:01:53.014Z,34
2018-08-30T03:02:58.305Z,34
2018-08-30T03:04:03.601Z,34
2018-08-30T03:05:08.800Z,34
2018-08-30T03:06:14.028Z,34
2018-08-30T03:07:19.498Z,34
2018-08-30T03:08:24.400Z,34
2018-08-30T03:09:29.776Z,34
2018-08-30T03:10:35.061Z,34
2018-08-30T03:11:40.333Z,34
2018-08-30T03:12:45.754Z,34
2018-08-30T03:13:50.698Z,34
2018-08-30T03:14:55.993Z,34
2018-08-30T03:16:00.949Z,34
2018-08-30T03:17:05.340Z,34
2018-08-30T03:18:10.869Z,34
2018-08-30T03:19:16.191Z,34
2018-08-30T03:20:21.464Z,34
2018-08-30T03:21:26.814Z,34
2018-08-30T03:22:32.115Z,34
2018-08-30T03:23:37.471Z,34
2018-08-30T03:24:43.171Z,34
2018-08-30T03:25:48.468Z,34
2018-08-30T03:26:53.198Z,35
2018-08-30T03:27:58.484Z,34
2018-08-30T03:29:03.226Z,34
2018-08-30T03:30:09.064Z,34
2018-08-30T03:31:15.567Z,35
2018-08-30T03:32:21.234Z,35
2018-08-30T03:33:27.126Z,35
2018-08-30T03:34:32.695Z,35
2018-08-30T03:35:37.344Z,35
2018-08-30T03:36:43.090Z,35
2018-08-30T03:37:48.373Z,35
2018-08-30T03:38:53.666Z,35
2018-08-30T03:39:59.181Z,35
2018-08-30T03:41:04.464Z,35
2018-08-30T03:42:09.757Z,35
2018-08-30T03:43:15.306Z,35
2018-08-30T03:44:20.309Z,35
2018-08-30T03:45:40.182Z,35
2018-08-30T03:46:45.774Z,35
2018-08-30T03:47:51.457Z,35
2018-08-30T03:48:56.984Z,35
2018-08-30T03:50:02.280Z,35
2018-08-30T03:51:06.983Z,35
2018-08-30T03:52:12.563Z,35
2018-08-30T03:53:17.895Z,35
2018-08-30T03:54:23.530Z,35
2018-08-30T03:55:28.957Z,35
2018-08-30T03:56:34.260Z,35
2018-08-30T03:57:39.297Z,35
2018-08-30T03:58:44.596Z,35
2018-08-30T03:59:49.925Z,35
2018-08-30T04:00:54.967Z,35
2018-08-30T04:02:00.009Z,36
2018-08-30T04:03:05.261Z,35
2018-08-30T04:04:10.632Z,35
2018-08-30T04:05:16.149Z,35
2018-08-30T04:06:21.696Z,34
2018-08-30T04:07:27.315Z,34
2018-08-30T04:08:32.885Z,34
2018-08-30T04:09:38.532Z,33
2018-08-30T04:10:43.525Z,33
2018-08-30T04:11:48.831Z,33
2018-08-30T04:12:53.801Z,33
2018-08-30T04:13:59.058Z,33
2018-08-30T04:15:04.623Z,33
2018-08-30T04:16:09.775Z,33
2018-08-30T04:17:14.765Z,33
2018-08-30T04:18:20.062Z,33
2018-08-30T04:19:24.755Z,33
2018-08-30T04:20:29.740Z,33
2018-08-30T04:21:35.011Z,33
2018-08-30T04:22:40.643Z,33
2018-08-30T04:23:45.909Z,33
2018-08-30T04:24:51.177Z,33
2018-08-30T04:25:56.563Z,33
2018-08-30T04:27:01.927Z,33
2018-08-30T04:28:07.623Z,33
2018-08-30T04:29:12.629Z,33
2018-08-30T04:30:17.605Z,33
2018-08-30T04:31:23.233Z,33
2018-08-30T04:32:28.406Z,33
2018-08-30T04:33:34.162Z,33
2018-08-30T04:34:39.528Z,33
2018-08-30T04:35:45.194Z,33
2018-08-30T04:36:50.648Z,33
2018-08-30T04:37:56.126Z,33
2018-08-30T04:39:01.624Z,33
2018-08-30T04:40:06.850Z,33
2018-08-30T04:41:12.017Z,33
2018-08-30T04:42:17.611Z,33
2018-08-30T04:43:23.162Z,33
2018-08-30T04:44:28.110Z,33
2018-08-30T04:45:34.072Z,33
2018-08-30T04:46:39.020Z,33
2018-08-30T04:47:44.468Z,33
2018-08-30T04:48:49.273Z,33
2018-08-30T04:49:54.472Z,33
2018-08-30T04:50:59.742Z,33
2018-08-30T04:52:04.387Z,33
2018-08-30T04:53:09.624Z,33
2018-08-30T04:54:15.059Z,33
2018-08-30T04:55:19.955Z,33
2018-08-30T04:56:24.595Z,34
2018-08-30T04:57:30.361Z,33
2018-08-30T04:58:34.952Z,34
2018-08-30T04:59:39.826Z,34
2018-08-30T05:00:45.248Z,34
2018-08-30T05:01:50.485Z,33
2018-08-30T05:02:55.898Z,34
2018-08-30T05:04:16.526Z,34
2018-08-30T05:05:21.981Z,34
2018-08-30T05:06:27.268Z,34
2018-08-30T05:07:32.411Z,34
2018-08-30T05:08:37.902Z,34
2018-08-30T05:09:43.596Z,34
2018-08-30T05:10:49.123Z,34
2018-08-30T05:11:54.304Z,34
2018-08-30T05:12:59.447Z,34
2018-08-30T05:14:04.050Z,34
2018-08-30T05:15:08.922Z,34
2018-08-30T05:16:14.652Z,34
2018-08-30T05:17:19.306Z,34
2018-08-30T05:18:23.906Z,34
2018-08-30T05:19:43.990Z,34
2018-08-30T05:20:49.160Z,34
2018-08-30T05:21:55.011Z,34
2018-08-30T05:23:00.277Z,34
2018-08-30T05:24:04.292Z,34
2018-08-30T05:25:09.703Z,34
2018-08-30T05:26:14.899Z,34
2018-08-30T05:27:20.334Z,34
2018-08-30T05:28:25.901Z,34
2018-08-30T05:29:31.096Z,34
2018-08-30T05:30:36.402Z,34
2018-08-30T05:31:41.268Z,34
2018-08-30T05:32:46.142Z,34
2018-08-30T05:33:51.472Z,34
2018-08-30T05:34:56.646Z,34
2018-08-30T05:36:01.829Z,34
2018-08-30T05:37:06.975Z,34
2018-08-30T05:38:12.189Z,34
2018-08-30T05:39:17.370Z,34
2018-08-30T05:40:22.842Z,34
2018-08-30T05:41:28.295Z,35
2018-08-30T05:42:33.980Z,34
2018-08-30T05:43:38.881Z,34
2018-08-30T05:44:44.245Z,34
2018-08-30T05:45:50.298Z,34
2018-08-30T05:46:55.536Z,34
2018-08-30T05:48:00.422Z,34
2018-08-30T05:49:05.819Z,34
2018-08-30T05:50:10.900Z,34
2018-08-30T05:51:16.089Z,34
2018-08-30T05:52:21.597Z,34
2018-08-30T05:53:26.748Z,34
2018-08-30T05:54:32.240Z,34
2018-08-30T05:55:37.422Z,34
2018-08-30T05:56:42.778Z,35
2018-08-30T05:57:48.349Z,35
2018-08-30T05:58:53.515Z,35
2018-08-30T05:59:58.731Z,35
2018-08-30T06:01:04.490Z,35
2018-08-30T06:02:09.425Z,35
2018-08-30T06:03:13.742Z,35
2018-08-30T06:04:19.202Z,35
2018-08-30T06:05:24.435Z,35
2018-08-30T06:06:29.851Z,35
2018-08-30T06:07:34.457Z,35
2018-08-30T06:08:39.904Z,35
2018-08-30T06:09:45.467Z,35
2018-08-30T06:10:50.928Z,35
2018-08-30T06:11:55.835Z,35
2018-08-30T06:13:01.653Z,35
2018-08-30T06:14:06.728Z,35
2018-08-30T06:15:12.283Z,35
2018-08-30T06:16:18.038Z,35
2018-08-30T06:17:23.522Z,35
2018-08-30T06:18:29.162Z,35
2018-08-30T06:19:34.672Z,35
2018-08-30T06:20:39.853Z,35
2018-08-30T06:21:45.560Z,35
2018-08-30T06:22:50.512Z,35
2018-08-30T06:23:55.999Z,35
2018-08-30T06:25:01.192Z,35
2018-08-30T06:26:05.784Z,35
2018-08-30T06:27:11.048Z,35
2018-08-30T06:28:16.196Z,35
2018-08-30T06:29:21.791Z,35
2018-08-30T06:30:27.751Z,35
2018-08-30T06:31:33.196Z,35
2018-08-30T06:32:38.457Z,35
2018-08-30T06:33:43.949Z,35
2018-08-30T06:34:49.812Z,35
2018-08-30T06:35:55.664Z,35
2018-08-30T06:37:01.076Z,35
2018-08-30T06:38:06.237Z,35
2018-08-30T06:39:11.443Z,35
2018-08-30T06:40:17.044Z,35
2018-08-30T06:41:21.945Z,35
2018-08-30T06:42:27.661Z,35
2018-08-30T06:43:32.603Z,35
2018-08-30T06:44:37.487Z,35
2018-08-30T06:45:42.892Z,35
2018-08-30T06:46:48.095Z,35
2018-08-30T06:47:53.257Z,35
2018-08-30T06:48:59.375Z,35
2018-08-30T06:50:05.557Z,36
2018-08-30T06:51:11.058Z,36
2018-08-30T06:52:16.191Z,36
2018-08-30T06:53:21.635Z,36
2018-08-30T06:54:27.571Z,36
2018-08-30T06:55:32.761Z,36
2018-08-30T06:56:38.401Z,36
2018-08-30T06:57:43.899Z,36
2018-08-30T06:58:49.579Z,36
2018-08-30T06:59:54.732Z,36
2018-08-30T07:01:00.256Z,36
2018-08-30T07:02:05.619Z,36
2018-08-30T07:03:11.156Z,36
2018-08-30T07:04:16.944Z,36
2018-08-30T07:05:23.151Z,36
2018-08-30T07:06:28.600Z,36
2018-08-30T07:07:33.802Z,36
2018-08-30T07:08:38.683Z,36
2018-08-30T07:09:44.105Z,36
2018-08-30T07:10:49.265Z,36
2018-08-30T07:11:54.499Z,36
2018-08-30T07:13:00.106Z,36
2018-08-30T07:14:05.249Z,36
2018-08-30T07:15:10.188Z,36
2018-08-30T07:16:15.424Z,36
2018-08-30T07:17:20.336Z,36
2018-08-30T07:18:40.803Z,36
2018-08-30T07:19:46.004Z,36
2018-08-30T07:20:51.166Z,36
2018-08-30T07:21:56.601Z,36
2018-08-30T07:23:01.804Z,36
2018-08-30T07:24:06.980Z,36
2018-08-30T07:25:12.743Z,36
2018-08-30T07:26:17.334Z,36
2018-08-30T07:27:22.816Z,36
2018-08-30T07:28:43.146Z,36
2018-08-30T07:29:48.317Z,36
2018-08-30T07:30:53.557Z,36
2018-08-30T07:31:58.420Z,36
2018-08-30T07:33:03.574Z,36
2018-08-30T07:34:09.680Z,36
2018-08-30T07:35:15.341Z,36
2018-08-30T07:36:20.794Z,36
2018-08-30T07:37:26.336Z,36
2018-08-30T07:38:31.814Z,36
2018-08-30T07:39:37.765Z,36
2018-08-30T07:40:42.634Z,36
2018-08-30T07:41:47.540Z,36
2018-08-30T07:42:52.770Z,36
2018-08-30T07:43:57.991Z,36
2018-08-30T07:45:03.351Z,36
2018-08-30T07:46:08.202Z,36
2018-08-30T07:47:13.769Z,36
2018-08-30T07:48:18.906Z,36
2018-08-30T07:49:24.259Z,37
2018-08-30T07:50:29.196Z,39
2018-08-30T07:51:34.603Z,39
2018-08-30T07:52:39.759Z,39
2018-08-30T07:53:44.357Z,39
2018-08-30T07:54:49.847Z,39
2018-08-30T07:55:54.771Z,39
2018-08-30T07:56:59.927Z,39
2018-08-30T07:58:05.189Z,39
2018-08-30T07:59:10.385Z,39
2018-08-30T08:00:15.556Z,40
2018-08-30T08:01:20.130Z,39
2018-08-30T08:02:25.313Z,39
2018-08-30T08:03:31.162Z,39
2018-08-30T08:04:36.306Z,39
2018-08-30T08:05:41.751Z,39
2018-08-30T08:06:47.193Z,39
2018-08-30T08:07:52.164Z,39
2018-08-30T08:08:57.591Z,39
2018-08-30T08:10:03.043Z,39
2018-08-30T08:11:08.299Z,39
2018-08-30T08:12:13.494Z,39
2018-08-30T08:13:18.412Z,39
2018-08-30T08:14:23.884Z,39
2018-08-30T08:15:29.043Z,39
2018-08-30T08:16:33.945Z,39
2018-08-30T08:17:39.402Z,39
2018-08-30T08:18:44.570Z,39
2018-08-30T08:19:50.117Z,38
2018-08-30T08:20:55.559Z,38
2018-08-30T08:22:00.523Z,38
2018-08-30T08:23:05.725Z,38
2018-08-30T08:24:10.309Z,38
2018-08-30T08:25:15.853Z,38
2018-08-30T08:26:21.504Z,38
2018-08-30T08:27:27.123Z,38
2018-08-30T08:28:32.569Z,38
2018-08-30T08:29:37.442Z,38
2018-08-30T08:30:42.718Z,38
2018-08-30T08:31:47.927Z,38
2018-08-30T08:32:53.380Z,38
2018-08-30T08:33:58.909Z,38
2018-08-30T08:35:03.219Z,38
2018-08-30T08:36:07.815Z,38
2018-08-30T08:37:13.517Z,38
2018-08-30T08:38:18.388Z,38
2018-08-30T08:39:23.826Z,38
2018-08-30T08:40:43.373Z,38
2018-08-30T08:41:48.834Z,38
2018-08-30T08:42:54.367Z,38
2018-08-30T08:43:59.546Z,37
2018-08-30T08:45:05.007Z,37
2018-08-30T08:46:10.543Z,37
2018-08-30T08:47:15.697Z,37
2018-08-30T08:48:21.165Z,37
2018-08-30T08:49:41.275Z,37
2018-08-30T08:50:46.428Z,37
2018-08-30T08:51:51.568Z,37
2018-08-30T08:52:56.210Z,37
2018-08-30T08:54:01.092Z,37
2018-08-30T08:55:06.045Z,37
2018-08-30T08:56:11.482Z,37
2018-08-30T08:57:16.371Z,37
2018-08-30T08:58:21.788Z,37
2018-08-30T08:59:26.644Z,37
2018-08-30T09:00:32.585Z,37
2018-08-30T09:01:37.471Z,37
2018-08-30T09:02:42.643Z,37
2018-08-30T09:03:48.515Z,37
2018-08-30T09:04:53.949Z,37
2018-08-30T09:05:58.879Z,37
2018-08-30T09:07:04.366Z,37
2018-08-30T09:08:09.746Z,37
2018-08-30T09:09:14.909Z,37
2018-08-30T09:10:20.603Z,37
2018-08-30T09:11:25.769Z,37
2018-08-30T09:12:30.933Z,37
2018-08-30T09:13:36.439Z,37
2018-08-30T09:14:41.998Z,36
2018-08-30T09:15:47.705Z,36
2018-08-30T09:16:53.150Z,36
2018-08-30T09:17:58.384Z,36
2018-08-30T09:19:03.567Z,36
2018-08-30T09:20:09.027Z,36
2018-08-30T09:21:14.253Z,36
2018-08-30T09:22:19.994Z,36
2018-08-30T09:23:25.438Z,37
2018-08-30T09:24:31.017Z,36
2018-08-30T09:25:36.458Z,36
2018-08-30T09:26:41.953Z,36
2018-08-30T09:27:47.905Z,36
2018-08-30T09:28:53.455Z,36
2018-08-30T09:29:58.614Z,36
2018-08-30T09:31:04.205Z,36
2018-08-30T09:32:09.786Z,36
2018-08-30T09:33:14.671Z,36
2018-08-30T09:34:19.818Z,36
2018-08-30T09:35:25.000Z,36
2018-08-30T09:36:30.510Z,36
2018-08-30T09:37:35.948Z,36
2018-08-30T09:38:41.228Z,36
2018-08-30T09:39:47.415Z,36
2018-08-30T09:40:52.888Z,36
2018-08-30T09:41:58.040Z,36
2018-08-30T09:43:02.917Z,36
2018-08-30T09:44:08.055Z,36
2018-08-30T09:45:13.500Z,36
2018-08-30T09:46:19.032Z,36
2018-08-30T09:47:24.517Z,36
2018-08-30T09:48:30.458Z,36
2018-08-30T09:49:35.395Z,36
2018-08-30T09:50:40.447Z,36
2018-08-30T09:51:46.108Z,36
2018-08-30T09:52:51.272Z,36
2018-08-30T09:53:56.719Z,36
2018-08-30T09:55:02.158Z,36
2018-08-30T09:56:07.234Z,36
2018-08-30T09:57:11.994Z,36
2018-08-30T09:58:18.924Z,36
2018-08-30T09:59:23.811Z,36
2018-08-30T10:00:29.244Z,36
2018-08-30T10:01:34.139Z,36
2018-08-30T10:02:39.583Z,36
2018-08-30T10:03:45.080Z,36
2018-08-30T10:04:50.851Z,36
2018-08-30T10:05:56.150Z,36
2018-08-30T10:07:01.113Z,36
2018-08-30T10:08:05.981Z,36
2018-08-30T10:09:10.884Z,36
2018-08-30T10:10:16.373Z,36
2018-08-30T10:11:21.805Z,36
2018-08-30T10:12:26.703Z,36
2018-08-30T10:13:31.575Z,36
2018-08-30T10:14:36.836Z,36
2018-08-30T10:15:42.649Z,36
2018-08-30T10:16:47.924Z,36
2018-08-30T10:17:53.076Z,36
2018-08-30T10:18:58.908Z,36
2018-08-30T10:20:04.460Z,36
2018-08-30T10:21:09.634Z,36
2018-08-30T10:22:14.810Z,36
2018-08-30T10:23:20.254Z,36
2018-08-30T10:24:24.828Z,35
2018-08-30T10:25:45.158Z,36
2018-08-30T10:26:49.846Z,36
2018-08-30T10:27:55.305Z,36
2018-08-30T10:29:00.475Z,36
2018-08-30T10:30:05.624Z,36
2018-08-30T10:31:11.381Z,35
2018-08-30T10:32:16.013Z,36
2018-08-30T10:33:21.487Z,35
2018-08-30T10:34:41.721Z,36
2018-08-30T10:35:47.205Z,35
2018-08-30T10:36:52.950Z,35
2018-08-30T10:37:58.722Z,35
2018-08-30T10:39:03.615Z,35
2018-08-30T10:40:09.244Z,35
2018-08-30T10:41:14.414Z,35
2018-08-30T10:42:19.849Z,35
2018-08-30T10:43:25.467Z,35
2018-08-30T10:44:30.905Z,35
2018-08-30T10:45:35.942Z,35
2018-08-30T10:46:40.841Z,35
2018-08-30T10:47:45.768Z,35
2018-08-30T10:48:51.014Z,35
2018-08-30T10:49:56.701Z,35
2018-08-30T10:51:02.567Z,35
2018-08-30T10:52:07.440Z,35
2018-08-30T10:53:12.893Z,35
2018-08-30T10:54:18.135Z,35
2018-08-30T10:55:23.670Z,35
2018-08-30T10:56:28.663Z,35
2018-08-30T10:57:34.165Z,35
2018-08-30T10:58:39.382Z,35
2018-08-30T10:59:44.822Z,35
2018-08-30T11:00:49.743Z,35
2018-08-30T11:01:54.715Z,35
2018-08-30T11:02:59.863Z,34
2018-08-30T11:04:05.248Z,34
2018-08-30T11:05:10.470Z,34
2018-08-30T11:06:15.701Z,34
2018-08-30T11:07:21.099Z,34
2018-08-30T11:08:26.003Z,34
2018-08-30T11:09:31.425Z,34
2018-08-30T11:10:36.591Z,34
2018-08-30T11:11:41.761Z,34
2018-08-30T11:12:47.632Z,34
2018-08-30T11:13:53.048Z,34
2018-08-30T11:14:57.354Z,34
2018-08-30T11:16:02.821Z,34
2018-08-30T11:17:08.072Z,34
2018-08-30T11:18:13.293Z,34
2018-08-30T11:19:19.039Z,34
2018-08-30T11:20:24.321Z,34
2018-08-30T11:21:30.065Z,34
2018-08-30T11:22:35.553Z,34
2018-08-30T11:23:41.116Z,34
2018-08-30T11:24:45.817Z,34
2018-08-30T11:25:50.778Z,34
2018-08-30T11:26:56.032Z,34
2018-08-30T11:28:00.989Z,34
2018-08-30T11:29:05.593Z,34
2018-08-30T11:30:10.786Z,34
2018-08-30T11:31:15.996Z,34
2018-08-30T11:32:21.449Z,34
2018-08-30T11:33:27.276Z,34
2018-08-30T11:34:32.740Z,34
2018-08-30T11:35:37.978Z,34
2018-08-30T11:36:43.832Z,34
2018-08-30T11:37:49.281Z,34
2018-08-30T11:38:54.163Z,34
2018-08-30T11:39:59.682Z,34
2018-08-30T11:41:04.560Z,34
2018-08-30T11:42:09.467Z,34
2018-08-30T11:43:15.261Z,33
2018-08-30T11:44:21.156Z,33
2018-08-30T11:45:41.505Z,33
2018-08-30T11:46:46.745Z,33
2018-08-30T11:47:51.934Z,33
2018-08-30T11:48:57.504Z,33
2018-08-30T11:50:02.696Z,33
2018-08-30T11:51:07.115Z,33
2018-08-30T11:52:13.101Z,33
2018-08-30T11:53:18.482Z,33
2018-08-30T11:54:23.374Z,33
2018-08-30T11:55:43.373Z,33
2018-08-30T11:56:48.271Z,33
2018-08-30T11:57:54.095Z,33
2018-08-30T11:58:59.283Z,33
2018-08-30T12:00:04.469Z,33
2018-08-30T12:01:10.259Z,33
2018-08-30T12:02:15.156Z,33
2018-08-30T12:03:20.668Z,33
2018-08-30T12:04:26.337Z,33
2018-08-30T12:05:31.260Z,33
2018-08-30T12:06:37.049Z,33
2018-08-30T12:07:42.276Z,33
2018-08-30T12:08:47.453Z,33
2018-08-30T12:09:52.879Z,33
2018-08-30T12:10:58.225Z,33
2018-08-30T12:12:04.441Z,33
2018-08-30T12:13:10.051Z,33
2018-08-30T12:14:15.493Z,33
2018-08-30T12:15:20.425Z,33
2018-08-30T12:16:40.515Z,33
2018-08-30T12:17:45.693Z,33
2018-08-30T12:18:51.038Z,33
2018-08-30T12:19:56.145Z,33
2018-08-30T12:21:01.220Z,32
2018-08-30T12:22:05.889Z,32
2018-08-30T12:23:11.538Z,33
2018-08-30T12:24:16.704Z,32
2018-08-30T12:25:22.152Z,33
2018-08-30T12:26:27.046Z,32
2018-08-30T12:27:32.464Z,33
2018-08-30T12:28:38.567Z,33
2018-08-30T12:29:44.550Z,32
2018-08-30T12:30:50.057Z,33
2018-08-30T12:31:55.666Z,32
2018-08-30T12:33:01.521Z,32
2018-08-30T12:34:06.951Z,32
2018-08-30T12:35:13.431Z,33
2018-08-30T12:36:20.089Z,32
2018-08-30T12:37:25.451Z,33
2018-08-30T12:38:31.244Z,33
2018-08-30T12:39:36.414Z,33
2018-08-30T12:40:42.289Z,33
2018-08-30T12:41:48.293Z,33
2018-08-30T12:42:54.459Z,33
2018-08-30T12:44:01.442Z,33
2018-08-30T12:45:06.710Z,33
2018-08-30T12:46:12.634Z,33
2018-08-30T12:47:18.480Z,32
2018-08-30T12:48:23.696Z,32
2018-08-30T12:49:43.916Z,32
2018-08-30T12:51:56.229Z,32
2018-08-30T12:53:02.583Z,32
2018-08-30T12:54:08.552Z,32
2018-08-30T12:55:15.732Z,32
2018-08-30T12:56:22.403Z,32
2018-08-30T12:57:28.999Z,32
2018-08-30T12:58:35.641Z,32
2018-08-30T12:59:41.414Z,32
2018-08-30T13:00:48.330Z,32
2018-08-30T13:01:54.561Z,32
2018-08-30T13:03:00.909Z,32
2018-08-30T13:04:08.269Z,32
2018-08-30T13:05:16.334Z,32
2018-08-30T13:06:24.285Z,32
2018-08-30T13:07:32.563Z,32
2018-08-30T13:08:39.386Z,32
2018-08-30T13:09:48.845Z,32
2018-08-30T13:10:54.915Z,32
2018-08-30T13:12:04.821Z,31
2018-08-30T13:13:14.256Z,31
2018-08-30T13:14:22.312Z,31
2018-08-30T13:15:31.873Z,31
2018-08-30T13:16:39.324Z,31
2018-08-30T13:17:46.524Z,31
2018-08-30T13:18:53.275Z,31
2018-08-30T13:19:59.627Z,31
2018-08-30T13:21:07.860Z,31
2018-08-30T13:22:16.608Z,31
2018-08-30T13:23:26.347Z,31
2018-08-30T13:24:34.977Z,31
2018-08-30T13:25:43.753Z,31
2018-08-30T13:26:53.138Z,31
2018-08-30T13:28:01.876Z,31
2018-08-30T13:29:10.808Z,31
2018-08-30T13:30:19.760Z,31
2018-08-30T13:31:29.926Z,31
2018-08-30T13:32:39.331Z,31
2018-08-30T13:33:49.877Z,31
2018-08-30T13:34:57.183Z,31
2018-08-30T13:36:08.530Z,31
2018-08-30T13:37:17.382Z,31
2018-08-30T13:38:25.647Z,31
2018-08-30T13:39:36.960Z,31
2018-08-30T13:40:47.654Z,31
2018-08-30T13:41:57.794Z,31
2018-08-30T13:43:08.838Z,31
2018-08-30T13:44:18.422Z,31
2018-08-30T13:45:29.299Z,31
2018-08-30T13:46:38.633Z,31
2018-08-30T13:47:47.237Z,31
2018-08-30T13:48:55.924Z,31
2018-08-30T13:50:05.614Z,31
2018-08-30T13:51:15.338Z,31
2018-08-30T13:52:25.957Z,31
2018-08-30T13:53:33.208Z,31
2018-08-30T13:54:42.105Z,31
2018-08-30T13:55:51.329Z,31
2018-08-30T13:57:00.121Z,31
2018-08-30T13:58:10.917Z,31
2018-08-30T13:59:20.698Z,31
2018-08-30T14:00:33.447Z,31
2018-08-30T14:01:45.659Z,31
2018-08-30T14:02:56.348Z,31
2018-08-30T14:04:04.633Z,31
2018-08-30T14:05:12.102Z,31
2018-08-30T14:06:22.034Z,31
2018-08-30T14:07:31.116Z,31
2018-08-30T14:08:38.465Z,31
2018-08-30T14:09:46.461Z,31
2018-08-30T14:10:55.052Z,31
2018-08-30T14:12:05.218Z,31
2018-08-30T14:13:16.393Z,30
2018-08-30T14:14:25.931Z,30
2018-08-30T14:15:35.148Z,30
2018-08-30T14:16:41.088Z,30
2018-08-30T14:17:46.775Z,30
2018-08-30T14:18:53.518Z,30
2018-08-30T14:19:58.754Z,30
2018-08-30T14:21:04.084Z,30
2018-08-30T14:22:09.452Z,30
2018-08-30T14:23:14.701Z,30
2018-08-30T14:24:20.285Z,30
2018-08-30T14:25:25.762Z,30
2018-08-30T14:26:30.845Z,30
2018-08-30T14:27:36.316Z,30
2018-08-30T14:28:41.881Z,30
2018-08-30T14:29:47.428Z,30
2018-08-30T14:30:53.182Z,30
2018-08-30T14:31:58.425Z,30
2018-08-30T14:33:04.456Z,30
2018-08-30T14:34:10.486Z,30
2018-08-30T14:35:15.149Z,30
2018-08-30T14:36:20.069Z,30
2018-08-30T14:37:25.937Z,30
2018-08-30T14:38:31.734Z,30
2018-08-30T14:39:37.566Z,30
2018-08-30T14:40:42.920Z,30
2018-08-30T14:41:49.184Z,30
2018-08-30T14:42:56.224Z,30
2018-08-30T14:44:01.762Z,30
2018-08-30T14:45:06.760Z,30
2018-08-30T14:46:12.348Z,30
2018-08-30T14:47:18.122Z,30
2018-08-30T14:48:24.070Z,30
2018-08-30T14:49:44.161Z,30
2018-08-30T14:50:49.023Z,30
2018-08-30T14:51:54.632Z,31
2018-08-30T14:52:59.949Z,31
2018-08-30T14:54:05.841Z,31
2018-08-30T14:55:11.743Z,31
2018-08-30T14:56:16.495Z,31
2018-08-30T14:57:22.149Z,31
2018-08-30T14:58:27.712Z,31
2018-08-30T14:59:32.960Z,31
2018-08-30T15:00:38.516Z,31
2018-08-30T15:01:43.828Z,31
2018-08-30T15:02:49.158Z,31
2018-08-30T15:03:54.352Z,31
2018-08-30T15:04:59.966Z,31
2018-08-30T15:06:05.369Z,31
2018-08-30T15:07:11.138Z,31
2018-08-30T15:08:16.878Z,31
2018-08-30T15:09:22.347Z,31
2018-08-30T15:10:28.345Z,31
2018-08-30T15:11:33.753Z,31
2018-08-30T15:12:39.392Z,31
2018-08-30T15:13:45.610Z,31
2018-08-30T15:14:51.178Z,31
2018-08-30T15:15:56.630Z,31
2018-08-30T15:17:01.805Z,31
2018-08-30T15:18:06.959Z,31
2018-08-30T15:19:12.451Z,31
2018-08-30T15:20:17.988Z,31
2018-08-30T15:21:23.272Z,31
2018-08-30T15:22:28.712Z,31
2018-08-30T15:23:34.763Z,31
2018-08-30T15:24:40.811Z,31
2018-08-30T15:25:46.209Z,31
2018-08-30T15:26:51.851Z,31
2018-08-30T15:27:57.265Z,31
2018-08-30T15:29:02.545Z,31
2018-08-30T15:30:08.374Z,31
2018-08-30T15:31:14.106Z,31
2018-08-30T15:32:19.611Z,31
2018-08-30T15:33:24.904Z,31
2018-08-30T15:34:44.465Z,31
2018-08-30T15:35:49.353Z,31
2018-08-30T15:36:54.660Z,31
2018-08-30T15:38:00.175Z,31
2018-08-30T15:39:05.199Z,31
2018-08-30T15:40:10.329Z,31
2018-08-30T15:41:15.643Z,31